sensor_id;sensor_type;location;lat;lon;timestamp;pressure;altitude;pressure_sealevel;temperature;humidity
64841;BME280;51307;52.162;7.560;2023-04-28T00:01:35;100994.31;;;9.96;39.04
64841;BME280;51307;52.162;7.560;2023-04-28T00:04:00;100991.88;;;10.02;39.12
64841;BME280;51307;52.162;7.560;2023-04-28T00:06:26;100989.28;;;9.92;39.15
64841;BME280;51307;52.162;7.560;2023-04-28T00:08:51;100995.25;;;10.04;39.20
64841;BME280;51307;52.162;7.560;2023-04-28T00:11:17;100987.31;;;9.95;39.39
64841;BME280;51307;52.162;7.560;2023-04-28T00:13:42;100978.16;;;9.97;39.19
64841;BME280;51307;52.162;7.560;2023-04-28T00:16:08;100977.53;;;9.85;39.05
64841;BME280;51307;52.162;7.560;2023-04-28T00:18:33;100971.72;;;9.90;39.32
64841;BME280;51307;52.162;7.560;2023-04-28T00:20:59;100967.91;;;9.92;39.47
64841;BME280;51307;52.162;7.560;2023-04-28T00:23:25;100958.19;;;9.91;39.26
64841;BME280;51307;52.162;7.560;2023-04-28T00:25:52;100967.00;;;10.02;39.38
64841;BME280;51307;52.162;7.560;2023-04-28T00:28:17;100960.03;;;9.91;39.53
64841;BME280;51307;52.162;7.560;2023-04-28T00:30:43;100960.03;;;9.91;39.56
64841;BME280;51307;52.162;7.560;2023-04-28T00:33:08;100955.09;;;9.96;39.55
64841;BME280;51307;52.162;7.560;2023-04-28T00:35:34;100949.03;;;9.94;39.78
64841;BME280;51307;52.162;7.560;2023-04-28T00:37:59;100944.25;;;9.98;39.31
64841;BME280;51307;52.162;7.560;2023-04-28T00:40:35;100937.69;;;9.92;39.68
64841;BME280;51307;52.162;7.560;2023-04-28T00:43:01;100938.19;;;9.96;39.57
64841;BME280;51307;52.162;7.560;2023-04-28T00:45:27;100933.63;;;9.88;39.74
64841;BME280;51307;52.162;7.560;2023-04-28T00:47:53;100930.25;;;9.86;40.14
64841;BME280;51307;52.162;7.560;2023-04-28T00:50:20;100921.56;;;9.84;40.29
64841;BME280;51307;52.162;7.560;2023-04-28T00:52:46;100925.53;;;9.80;40.38
64841;BME280;51307;52.162;7.560;2023-04-28T00:55:14;100916.06;;;9.85;40.33
64841;BME280;51307;52.162;7.560;2023-04-28T00:57:41;100907.75;;;9.70;40.69
64841;BME280;51307;52.162;7.560;2023-04-28T01:00:08;100907.81;;;9.79;40.54
64841;BME280;51307;52.162;7.560;2023-04-28T01:02:37;100902.31;;;9.80;40.31
64841;BME280;51307;52.162;7.560;2023-04-28T01:05:03;100903.03;;;9.82;40.22
64841;BME280;51307;52.162;7.560;2023-04-28T01:07:29;100904.69;;;9.83;40.21
64841;BME280;51307;52.162;7.560;2023-04-28T01:09:55;100903.84;;;9.83;40.46
64841;BME280;51307;52.162;7.560;2023-04-28T01:12:21;100907.66;;;9.80;40.54
64841;BME280;51307;52.162;7.560;2023-04-28T01:14:48;100896.81;;;9.82;40.79
64841;BME280;51307;52.162;7.560;2023-04-28T01:17:14;100893.53;;;9.70;40.73
64841;BME280;51307;52.162;7.560;2023-04-28T01:19:39;100892.84;;;9.68;40.85
64841;BME280;51307;52.162;7.560;2023-04-28T01:22:05;100892.94;;;9.76;40.77
64841;BME280;51307;52.162;7.560;2023-04-28T01:24:31;100896.28;;;9.78;41.08
64841;BME280;51307;52.162;7.560;2023-04-28T01:26:56;100883.44;;;9.82;40.64
64841;BME280;51307;52.162;7.560;2023-04-28T01:29:22;100880.56;;;9.75;41.11
64841;BME280;51307;52.162;7.560;2023-04-28T01:31:47;100872.38;;;9.76;40.84
64841;BME280;51307;52.162;7.560;2023-04-28T01:34:13;100870.19;;;9.72;41.12
64841;BME280;51307;52.162;7.560;2023-04-28T01:36:38;100874.97;;;9.68;41.16
64841;BME280;51307;52.162;7.560;2023-04-28T01:39:04;100881.19;;;9.69;40.92
64841;BME280;51307;52.162;7.560;2023-04-28T01:41:30;100877.38;;;9.71;41.01
64841;BME280;51307;52.162;7.560;2023-04-28T01:44:01;100878.44;;;9.79;41.28
64841;BME280;51307;52.162;7.560;2023-04-28T01:46:27;100862.00;;;9.73;41.27
64841;BME280;51307;52.162;7.560;2023-04-28T01:48:52;100862.00;;;9.73;41.29
64841;BME280;51307;52.162;7.560;2023-04-28T01:51:18;100848.50;;;9.75;40.93
64841;BME280;51307;52.162;7.560;2023-04-28T01:53:43;100847.34;;;9.77;41.06
64841;BME280;51307;52.162;7.560;2023-04-28T01:56:09;100852.31;;;9.72;41.12
64841;BME280;51307;52.162;7.560;2023-04-28T01:58:34;100838.88;;;9.64;41.11
64841;BME280;51307;52.162;7.560;2023-04-28T02:01:00;100856.53;;;9.57;41.39
64841;BME280;51307;52.162;7.560;2023-04-28T02:03:25;100841.94;;;9.69;41.08
64841;BME280;51307;52.162;7.560;2023-04-28T02:05:52;100837.97;;;9.73;40.99
64841;BME280;51307;52.162;7.560;2023-04-28T02:08:17;100833.44;;;9.74;41.06
64841;BME280;51307;52.162;7.560;2023-04-28T02:10:43;100826.81;;;9.60;41.64
64841;BME280;51307;52.162;7.560;2023-04-28T02:13:09;100827.41;;;9.54;41.78
64841;BME280;51307;52.162;7.560;2023-04-28T02:15:39;100819.22;;;9.47;41.63
64841;BME280;51307;52.162;7.560;2023-04-28T02:18:04;100821.78;;;9.39;41.85
64841;BME280;51307;52.162;7.560;2023-04-28T02:20:30;100826.59;;;9.53;41.59
64841;BME280;51307;52.162;7.560;2023-04-28T02:22:55;100821.53;;;9.32;42.14
64841;BME280;51307;52.162;7.560;2023-04-28T02:25:21;100823.63;;;9.38;42.29
64841;BME280;51307;52.162;7.560;2023-04-28T02:27:46;100822.00;;;9.46;41.83
64841;BME280;51307;52.162;7.560;2023-04-28T02:30:12;100820.34;;;9.45;41.92
64841;BME280;51307;52.162;7.560;2023-04-28T02:32:37;100826.44;;;9.37;42.40
64841;BME280;51307;52.162;7.560;2023-04-28T02:35:03;100817.28;;;9.39;42.30
64841;BME280;51307;52.162;7.560;2023-04-28T02:37:29;100816.50;;;9.29;42.66
64841;BME280;51307;52.162;7.560;2023-04-28T02:39:54;100810.72;;;9.52;42.26
64841;BME280;51307;52.162;7.560;2023-04-28T02:42:20;100815.38;;;9.68;41.70
64841;BME280;51307;52.162;7.560;2023-04-28T02:44:45;100813.09;;;9.55;41.99
64841;BME280;51307;52.162;7.560;2023-04-28T02:47:11;100808.44;;;9.57;42.10
64841;BME280;51307;52.162;7.560;2023-04-28T02:49:36;100810.34;;;9.47;42.02
64841;BME280;51307;52.162;7.560;2023-04-28T02:52:01;100814.50;;;9.67;42.13
64841;BME280;51307;52.162;7.560;2023-04-28T02:54:27;100813.09;;;9.55;42.38
64841;BME280;51307;52.162;7.560;2023-04-28T02:56:57;100809.81;;;9.61;42.49
64841;BME280;51307;52.162;7.560;2023-04-28T02:59:23;100813.00;;;9.83;41.99
64841;BME280;51307;52.162;7.560;2023-04-28T03:01:49;100806.06;;;9.72;42.18
64841;BME280;51307;52.162;7.560;2023-04-28T03:04:16;100806.28;;;9.79;41.83
64841;BME280;51307;52.162;7.560;2023-04-28T03:06:42;100799.88;;;9.71;41.78
64841;BME280;51307;52.162;7.560;2023-04-28T03:09:08;100803.94;;;9.57;42.38
64841;BME280;51307;52.162;7.560;2023-04-28T03:11:34;100795.16;;;9.65;42.07
64841;BME280;51307;52.162;7.560;2023-04-28T03:13:59;100796.25;;;9.81;42.16
64841;BME280;51307;52.162;7.560;2023-04-28T03:16:25;100793.91;;;9.77;42.48
64841;BME280;51307;52.162;7.560;2023-04-28T03:18:51;100786.81;;;9.86;42.69
64841;BME280;51307;52.162;7.560;2023-04-28T03:21:16;100781.47;;;9.86;42.32
64841;BME280;51307;52.162;7.560;2023-04-28T03:23:42;100783.97;;;9.88;42.63
64841;BME280;51307;52.162;7.560;2023-04-28T03:26:07;100779.88;;;9.75;43.00
64841;BME280;51307;52.162;7.560;2023-04-28T03:28:33;100785.22;;;9.75;43.35
64841;BME280;51307;52.162;7.560;2023-04-28T03:30:58;100778.41;;;9.63;43.52
64841;BME280;51307;52.162;7.560;2023-04-28T03:33:24;100779.50;;;9.70;43.58
64841;BME280;51307;52.162;7.560;2023-04-28T03:35:49;100769.09;;;9.67;43.11
64841;BME280;51307;52.162;7.560;2023-04-28T03:38:15;100771.31;;;9.54;43.38
64841;BME280;51307;52.162;7.560;2023-04-28T03:40:40;100769.97;;;9.50;43.77
64841;BME280;51307;52.162;7.560;2023-04-28T03:43:06;100760.78;;;9.70;43.64
64841;BME280;51307;52.162;7.560;2023-04-28T03:45:31;100762.25;;;9.65;43.69
64841;BME280;51307;52.162;7.560;2023-04-28T03:47:57;100760.25;;;9.67;43.47
64841;BME280;51307;52.162;7.560;2023-04-28T03:50:22;100753.94;;;9.50;43.68
64841;BME280;51307;52.162;7.560;2023-04-28T03:52:48;100760.03;;;9.60;43.79
64841;BME280;51307;52.162;7.560;2023-04-28T03:55:13;100756.25;;;9.89;43.38
64841;BME280;51307;52.162;7.560;2023-04-28T03:57:39;100751.16;;;9.77;43.69
64841;BME280;51307;52.162;7.560;2023-04-28T04:00:05;100757.03;;;9.81;43.72
64841;BME280;51307;52.162;7.560;2023-04-28T04:02:30;100750.16;;;9.79;43.19
64841;BME280;51307;52.162;7.560;2023-04-28T04:04:56;100751.91;;;9.88;42.95
64841;BME280;51307;52.162;7.560;2023-04-28T04:07:22;100731.88;;;9.92;43.10
64841;BME280;51307;52.162;7.560;2023-04-28T04:09:47;100729.72;;;9.69;43.65
64841;BME280;51307;52.162;7.560;2023-04-28T04:12:13;100729.78;;;9.77;43.33
64841;BME280;51307;52.162;7.560;2023-04-28T04:14:38;100731.19;;;9.90;43.29
64841;BME280;51307;52.162;7.560;2023-04-28T04:17:04;100726.38;;;9.93;43.38
64841;BME280;51307;52.162;7.560;2023-04-28T04:19:30;100718.34;;;9.93;43.15
64841;BME280;51307;52.162;7.560;2023-04-28T04:21:56;100721.09;;;9.75;43.52
64841;BME280;51307;52.162;7.560;2023-04-28T04:24:21;100712.44;;;9.82;43.82
64841;BME280;51307;52.162;7.560;2023-04-28T04:26:46;100714.38;;;9.71;43.92
64841;BME280;51307;52.162;7.560;2023-04-28T04:29:12;100707.38;;;9.70;43.86
64841;BME280;51307;52.162;7.560;2023-04-28T04:31:37;100702.06;;;9.79;43.86
64841;BME280;51307;52.162;7.560;2023-04-28T04:34:03;100701.16;;;9.96;43.36
64841;BME280;51307;52.162;7.560;2023-04-28T04:36:29;100702.84;;;9.71;43.80
64841;BME280;51307;52.162;7.560;2023-04-28T04:38:54;100702.06;;;9.79;44.07
64841;BME280;51307;52.162;7.560;2023-04-28T04:41:20;100698.69;;;9.76;44.24
64841;BME280;51307;52.162;7.560;2023-04-28T04:43:46;100704.03;;;9.76;44.22
64841;BME280;51307;52.162;7.560;2023-04-28T04:46:12;100696.34;;;9.73;44.40
64841;BME280;51307;52.162;7.560;2023-04-28T04:48:37;100698.13;;;9.91;44.23
64841;BME280;51307;52.162;7.560;2023-04-28T04:51:03;100700.13;;;9.89;44.34
64841;BME280;51307;52.162;7.560;2023-04-28T04:53:28;100699.28;;;9.88;44.03
64841;BME280;51307;52.162;7.560;2023-04-28T04:55:54;100710.13;;;9.87;44.27
64841;BME280;51307;52.162;7.560;2023-04-28T04:58:20;100705.03;;;10.02;44.17
64841;BME280;51307;52.162;7.560;2023-04-28T05:00:45;100711.16;;;9.94;44.09
64841;BME280;51307;52.162;7.560;2023-04-28T05:03:11;100710.13;;;9.87;44.63
64841;BME280;51307;52.162;7.560;2023-04-28T05:05:36;100704.84;;;9.69;44.97
64841;BME280;51307;52.162;7.560;2023-04-28T05:08:02;100709.59;;;9.83;45.10
64841;BME280;51307;52.162;7.560;2023-04-28T05:10:28;100705.00;;;9.93;45.23
64841;BME280;51307;52.162;7.560;2023-04-28T05:12:53;100699.41;;;9.79;45.61
64841;BME280;51307;52.162;7.560;2023-04-28T05:15:19;100699.59;;;9.85;45.56
64841;BME280;51307;52.162;7.560;2023-04-28T05:17:44;100692.47;;;9.68;45.95
64841;BME280;51307;52.162;7.560;2023-04-28T05:20:10;100682.16;;;10.07;44.90
64841;BME280;51307;52.162;7.560;2023-04-28T05:22:36;100689.75;;;9.86;45.38
64841;BME280;51307;52.162;7.560;2023-04-28T05:25:01;100686.28;;;9.93;45.83
64841;BME280;51307;52.162;7.560;2023-04-28T05:27:27;100684.28;;;9.96;47.30
64841;BME280;51307;52.162;7.560;2023-04-28T05:29:52;100683.03;;;10.08;47.54
64841;BME280;51307;52.162;7.560;2023-04-28T05:32:18;100680.00;;;9.76;49.95
64841;BME280;51307;52.162;7.560;2023-04-28T05:34:43;100691.84;;;9.74;50.17
64841;BME280;51307;52.162;7.560;2023-04-28T05:37:09;100693.09;;;9.62;51.30
64841;BME280;51307;52.162;7.560;2023-04-28T05:39:34;100683.41;;;9.87;50.94
64841;BME280;51307;52.162;7.560;2023-04-28T05:42:00;100687.34;;;9.74;51.27
64841;BME280;51307;52.162;7.560;2023-04-28T05:44:25;100679.28;;;9.66;51.68
64841;BME280;51307;52.162;7.560;2023-04-28T05:46:51;100676.81;;;9.73;51.70
64841;BME280;51307;52.162;7.560;2023-04-28T05:49:16;100683.06;;;9.90;51.63
64841;BME280;51307;52.162;7.560;2023-04-28T05:51:42;100680.31;;;9.73;52.13
64841;BME280;51307;52.162;7.560;2023-04-28T05:54:08;100675.72;;;9.84;51.79
64841;BME280;51307;52.162;7.560;2023-04-28T05:56:34;100674.34;;;9.80;51.92
64841;BME280;51307;52.162;7.560;2023-04-28T05:59:02;100679.25;;;9.92;51.69
64841;BME280;51307;52.162;7.560;2023-04-28T06:01:30;100676.47;;;10.02;51.57
64841;BME280;51307;52.162;7.560;2023-04-28T06:03:56;100671.00;;;9.77;52.27
64841;BME280;51307;52.162;7.560;2023-04-28T06:06:23;100673.84;;;10.10;51.24
64841;BME280;51307;52.162;7.560;2023-04-28T06:08:49;100676.97;;;10.06;50.75
64841;BME280;51307;52.162;7.560;2023-04-28T06:11:15;100679.66;;;10.06;50.60
64841;BME280;51307;52.162;7.560;2023-04-28T06:13:41;100681.81;;;10.02;50.79
64841;BME280;51307;52.162;7.560;2023-04-28T06:16:06;100668.84;;;10.16;50.61
64841;BME280;51307;52.162;7.560;2023-04-28T06:18:32;100676.75;;;9.91;51.46
64841;BME280;51307;52.162;7.560;2023-04-28T06:20:57;100679.00;;;10.04;51.47
64841;BME280;51307;52.162;7.560;2023-04-28T06:23:23;100663.25;;;10.01;51.33
64841;BME280;51307;52.162;7.560;2023-04-28T06:25:49;100673.03;;;10.18;51.14
64841;BME280;51307;52.162;7.560;2023-04-28T06:28:14;100672.22;;;10.26;51.29
64841;BME280;51307;52.162;7.560;2023-04-28T06:30:40;100673.56;;;10.22;51.57
64841;BME280;51307;52.162;7.560;2023-04-28T06:33:05;100668.56;;;10.27;51.33
64841;BME280;51307;52.162;7.560;2023-04-28T06:35:31;100670.47;;;10.08;52.85
64841;BME280;51307;52.162;7.560;2023-04-28T06:38:01;100672.44;;;10.41;52.49
64841;BME280;51307;52.162;7.560;2023-04-28T06:40:27;100678.94;;;10.30;52.43
64841;BME280;51307;52.162;7.560;2023-04-28T06:42:53;100673.59;;;10.38;52.00
64841;BME280;51307;52.162;7.560;2023-04-28T06:45:18;100675.69;;;10.45;51.68
64841;BME280;51307;52.162;7.560;2023-04-28T06:47:44;100668.25;;;10.38;52.21
64841;BME280;51307;52.162;7.560;2023-04-28T06:50:09;100659.22;;;10.31;52.23
64841;BME280;51307;52.162;7.560;2023-04-28T06:52:35;100654.72;;;10.40;52.37
64841;BME280;51307;52.162;7.560;2023-04-28T06:55:04;100646.38;;;10.35;52.70
64841;BME280;51307;52.162;7.560;2023-04-28T06:57:30;100641.63;;;10.20;52.95
64841;BME280;51307;52.162;7.560;2023-04-28T06:59:56;100636.66;;;10.34;53.05
64841;BME280;51307;52.162;7.560;2023-04-28T07:02:21;100629.47;;;10.34;52.96
64841;BME280;51307;52.162;7.560;2023-04-28T07:04:47;100626.44;;;10.29;53.51
64841;BME280;51307;52.162;7.560;2023-04-28T07:07:13;100614.59;;;10.40;53.02
64841;BME280;51307;52.162;7.560;2023-04-28T07:09:39;100611.78;;;10.41;53.57
64841;BME280;51307;52.162;7.560;2023-04-28T07:12:04;100613.81;;;10.56;53.36
64841;BME280;51307;52.162;7.560;2023-04-28T07:14:32;100612.59;;;10.42;53.05
64841;BME280;51307;52.162;7.560;2023-04-28T07:16:58;100615.84;;;10.54;53.20
64841;BME280;51307;52.162;7.560;2023-04-28T07:19:23;100621.88;;;10.64;52.67
64841;BME280;51307;52.162;7.560;2023-04-28T07:21:49;100622.56;;;10.66;52.78
64841;BME280;51307;52.162;7.560;2023-04-28T07:24:14;100621.88;;;10.64;52.97
64841;BME280;51307;52.162;7.560;2023-04-28T07:26:40;100621.38;;;10.60;52.70
64841;BME280;51307;52.162;7.560;2023-04-28T07:29:05;100632.25;;;10.59;52.53
64841;BME280;51307;52.162;7.560;2023-04-28T07:31:33;100628.72;;;10.58;52.72
64841;BME280;51307;52.162;7.560;2023-04-28T07:33:59;100634.41;;;10.55;52.86
64841;BME280;51307;52.162;7.560;2023-04-28T07:36:25;100629.88;;;10.56;53.05
64841;BME280;51307;52.162;7.560;2023-04-28T07:38:51;100638.06;;;10.54;53.16
64841;BME280;51307;52.162;7.560;2023-04-28T07:41:17;100625.56;;;10.63;53.11
64841;BME280;51307;52.162;7.560;2023-04-28T07:43:43;100631.38;;;10.58;53.17
64841;BME280;51307;52.162;7.560;2023-04-28T07:46:09;100623.19;;;10.60;53.47
64841;BME280;51307;52.162;7.560;2023-04-28T07:48:34;100618.53;;;10.62;53.63
64841;BME280;51307;52.162;7.560;2023-04-28T07:51:00;100621.22;;;10.62;53.70
64841;BME280;51307;52.162;7.560;2023-04-28T07:53:26;100629.59;;;10.75;53.46
64841;BME280;51307;52.162;7.560;2023-04-28T07:55:53;100626.72;;;10.69;53.90
64841;BME280;51307;52.162;7.560;2023-04-28T07:58:18;100635.13;;;10.74;54.09
64841;BME280;51307;52.162;7.560;2023-04-28T08:00:44;100635.13;;;10.74;54.39
64841;BME280;51307;52.162;7.560;2023-04-28T08:03:09;100633.78;;;10.78;54.20
64841;BME280;51307;52.162;7.560;2023-04-28T08:05:35;100640.94;;;10.86;54.15
64841;BME280;51307;52.162;7.560;2023-04-28T08:08:02;100639.31;;;10.85;54.49
64841;BME280;51307;52.162;7.560;2023-04-28T08:10:28;100640.28;;;10.84;54.36
64841;BME280;51307;52.162;7.560;2023-04-28T08:12:53;100638.44;;;10.92;54.56
64841;BME280;51307;52.162;7.560;2023-04-28T08:15:19;100634.94;;;10.92;55.14
64841;BME280;51307;52.162;7.560;2023-04-28T08:17:45;100636.63;;;10.76;55.76
64841;BME280;51307;52.162;7.560;2023-04-28T08:20:10;100631.28;;;10.85;56.09
64841;BME280;51307;52.162;7.560;2023-04-28T08:22:36;100634.78;;;10.93;55.45
64841;BME280;51307;52.162;7.560;2023-04-28T08:25:02;100630.25;;;10.86;55.83
64841;BME280;51307;52.162;7.560;2023-04-28T08:27:27;100629.59;;;11.00;56.50
64841;BME280;51307;52.162;7.560;2023-04-28T08:29:53;100614.38;;;11.01;57.32
64841;BME280;51307;52.162;7.560;2023-04-28T08:32:18;100624.56;;;11.14;57.48
64841;BME280;51307;52.162;7.560;2023-04-28T08:34:44;100625.41;;;11.06;58.76
64841;BME280;51307;52.162;7.560;2023-04-28T08:37:09;100622.06;;;11.12;58.34
64841;BME280;51307;52.162;7.560;2023-04-28T08:39:35;100632.09;;;11.10;58.15
64841;BME280;51307;52.162;7.560;2023-04-28T08:42:04;100628.75;;;11.16;58.30
64841;BME280;51307;52.162;7.560;2023-04-28T08:44:37;100633.94;;;11.18;58.71
64841;BME280;51307;52.162;7.560;2023-04-28T08:47:11;100633.28;;;11.16;58.43
64841;BME280;51307;52.162;7.560;2023-04-28T08:49:37;100633.59;;;11.13;58.10
64841;BME280;51307;52.162;7.560;2023-04-28T08:52:09;100635.59;;;11.27;57.93
64841;BME280;51307;52.162;7.560;2023-04-28T08:54:37;100622.91;;;11.29;57.58
64841;BME280;51307;52.162;7.560;2023-04-28T08:57:07;100620.03;;;11.31;57.04
64841;BME280;51307;52.162;7.560;2023-04-28T08:59:33;100621.38;;;11.35;57.81
64841;BME280;51307;52.162;7.560;2023-04-28T09:01:59;100628.41;;;11.36;57.69
64841;BME280;51307;52.162;7.560;2023-04-28T09:04:24;100630.75;;;11.39;56.87
64841;BME280;51307;52.162;7.560;2023-04-28T09:06:50;100629.56;;;11.41;56.89
64841;BME280;51307;52.162;7.560;2023-04-28T09:09:23;100626.88;;;11.50;57.21
64841;BME280;51307;52.162;7.560;2023-04-28T09:11:57;100617.16;;;11.49;57.25
64841;BME280;51307;52.162;7.560;2023-04-28T09:14:24;100625.53;;;11.54;56.86
64841;BME280;51307;52.162;7.560;2023-04-28T09:16:51;100618.00;;;11.41;57.57
64841;BME280;51307;52.162;7.560;2023-04-28T09:19:18;100608.13;;;11.50;57.01
64841;BME280;51307;52.162;7.560;2023-04-28T09:24:31;100591.66;;;11.69;56.86
64841;BME280;51307;52.162;7.560;2023-04-28T09:26:59;100596.09;;;11.85;56.72
64841;BME280;51307;52.162;7.560;2023-04-28T09:29:25;100596.78;;;11.96;56.98
64841;BME280;51307;52.162;7.560;2023-04-28T09:31:51;100588.69;;;12.04;56.95
64841;BME280;51307;52.162;7.560;2023-04-28T09:34:18;100591.81;;;12.16;56.82
64841;BME280;51307;52.162;7.560;2023-04-28T09:36:43;100588.97;;;12.17;56.78
64841;BME280;51307;52.162;7.560;2023-04-28T09:39:09;100587.09;;;12.26;56.61
64841;BME280;51307;52.162;7.560;2023-04-28T09:41:41;100581.59;;;12.42;56.99
64841;BME280;51307;52.162;7.560;2023-04-28T09:46:36;100581.56;;;12.51;56.50
64841;BME280;51307;52.162;7.560;2023-04-28T09:49:02;100579.88;;;12.50;56.45
64841;BME280;51307;52.162;7.560;2023-04-28T09:51:27;100584.53;;;12.56;57.08
64841;BME280;51307;52.162;7.560;2023-04-28T09:53:54;100579.09;;;12.64;57.40
64841;BME280;51307;52.162;7.560;2023-04-28T09:56:26;100569.91;;;12.82;56.63
64841;BME280;51307;52.162;7.560;2023-04-28T09:58:53;100568.22;;;12.81;57.21
64841;BME280;51307;52.162;7.560;2023-04-28T10:01:21;100572.91;;;12.87;56.88
64841;BME280;51307;52.162;7.560;2023-04-28T10:03:49;100568.47;;;12.94;56.98
64841;BME280;51307;52.162;7.560;2023-04-28T10:06:18;100557.09;;;13.07;56.78
64841;BME280;51307;52.162;7.560;2023-04-28T10:08:44;100574.34;;;13.12;56.54
64841;BME280;51307;52.162;7.560;2023-04-28T10:11:13;100563.91;;;13.18;56.62
64841;BME280;51307;52.162;7.560;2023-04-28T10:13:41;100566.50;;;13.26;56.30
64841;BME280;51307;52.162;7.560;2023-04-28T10:16:09;100568.00;;;13.14;56.56
64841;BME280;51307;52.162;7.560;2023-04-28T10:18:36;100561.63;;;13.06;56.11
64841;BME280;51307;52.162;7.560;2023-04-28T10:21:03;100557.53;;;13.19;56.40
64841;BME280;51307;52.162;7.560;2023-04-28T10:26:13;100550.03;;;13.29;56.58
64841;BME280;51307;52.162;7.560;2023-04-28T10:28:45;100548.44;;;13.35;56.33
64841;BME280;51307;52.162;7.560;2023-04-28T10:31:13;100553.56;;;13.44;56.27
64841;BME280;51307;52.162;7.560;2023-04-28T10:33:40;100546.31;;;13.45;56.30
64841;BME280;51307;52.162;7.560;2023-04-28T10:36:07;100542.81;;;13.44;56.34
64841;BME280;51307;52.162;7.560;2023-04-28T10:38:34;100539.66;;;13.41;56.40
64841;BME280;51307;52.162;7.560;2023-04-28T10:41:00;100544.56;;;13.52;56.49
64841;BME280;51307;52.162;7.560;2023-04-28T10:43:36;100535.00;;;13.50;56.19
64841;BME280;51307;52.162;7.560;2023-04-28T10:46:07;100534.16;;;13.64;56.82
64841;BME280;51307;52.162;7.560;2023-04-28T11:14:31;100492.00;;;14.23;56.39
64841;BME280;51307;52.162;7.560;2023-04-28T11:17:05;100493.09;;;14.28;55.86
64841;BME280;51307;52.162;7.560;2023-04-28T11:22:01;100499.91;;;14.24;56.23
64841;BME280;51307;52.162;7.560;2023-04-28T11:24:29;100482.81;;;14.32;56.66
64841;BME280;51307;52.162;7.560;2023-04-28T11:26:56;100484.78;;;14.45;56.62
64841;BME280;51307;52.162;7.560;2023-04-28T11:29:36;100473.31;;;14.58;57.05
64841;BME280;51307;52.162;7.560;2023-04-28T11:32:07;100472.97;;;14.68;56.23
64841;BME280;51307;52.162;7.560;2023-04-28T11:34:33;100469.66;;;14.66;55.46
64841;BME280;51307;52.162;7.560;2023-04-28T11:36:59;100474.19;;;14.65;55.51
64841;BME280;51307;52.162;7.560;2023-04-28T11:39:29;100481.44;;;14.65;55.75
64841;BME280;51307;52.162;7.560;2023-04-28T11:41:59;100473.66;;;14.76;56.34
64841;BME280;51307;52.162;7.560;2023-04-28T11:44:29;100475.03;;;14.94;56.35
64841;BME280;51307;52.162;7.560;2023-04-28T11:46:56;100475.66;;;14.96;55.44
64841;BME280;51307;52.162;7.560;2023-04-28T11:52:07;100483.50;;;14.91;55.62
64841;BME280;51307;52.162;7.560;2023-04-28T11:54:33;100480.78;;;14.91;55.25
64841;BME280;51307;52.162;7.560;2023-04-28T11:56:59;100476.97;;;14.78;55.08
64841;BME280;51307;52.162;7.560;2023-04-28T11:59:28;100482.88;;;14.89;56.03
64841;BME280;51307;52.162;7.560;2023-04-28T12:01:57;100478.47;;;14.81;55.71
64841;BME280;51307;52.162;7.560;2023-04-28T12:04:35;100471.06;;;14.90;55.74
64841;BME280;51307;52.162;7.560;2023-04-28T12:09:38;100484.19;;;14.71;55.49
64841;BME280;51307;52.162;7.560;2023-04-28T12:12:07;100483.88;;;14.59;55.55
64841;BME280;51307;52.162;7.560;2023-04-28T12:14:52;100473.16;;;14.66;56.22
64841;BME280;51307;52.162;7.560;2023-04-28T12:17:33;100482.16;;;14.52;56.37
64841;BME280;51307;52.162;7.560;2023-04-28T12:20:01;100477.81;;;14.51;56.39
64841;BME280;51307;52.162;7.560;2023-04-28T12:22:27;100479.72;;;14.57;56.76
64841;BME280;51307;52.162;7.560;2023-04-28T12:25:08;100480.94;;;14.54;57.02
64841;BME280;51307;52.162;7.560;2023-04-28T12:27:36;100473.06;;;14.53;56.86
64841;BME280;51307;52.162;7.560;2023-04-28T12:30:23;100468.56;;;14.60;56.67
64841;BME280;51307;52.162;7.560;2023-04-28T12:32:50;100469.16;;;14.55;56.81
64841;BME280;51307;52.162;7.560;2023-04-28T12:35:15;100468.38;;;14.61;56.78
64841;BME280;51307;52.162;7.560;2023-04-28T12:37:42;100470.44;;;14.59;57.49
64841;BME280;51307;52.162;7.560;2023-04-28T12:40:08;100475.81;;;14.59;57.75
64841;BME280;51307;52.162;7.560;2023-04-28T12:42:35;100476.63;;;14.60;57.78
64841;BME280;51307;52.162;7.560;2023-04-28T12:45:01;100483.44;;;14.56;57.84
64841;BME280;51307;52.162;7.560;2023-04-28T12:47:26;100489.06;;;14.61;57.82
64841;BME280;51307;52.162;7.560;2023-04-28T12:49:53;100476.34;;;14.48;58.29
64841;BME280;51307;52.162;7.560;2023-04-28T12:52:19;100481.59;;;14.56;58.24
64841;BME280;51307;52.162;7.560;2023-04-28T12:54:45;100483.16;;;14.44;59.59
64841;BME280;51307;52.162;7.560;2023-04-28T12:57:12;100480.44;;;14.44;60.11
64841;BME280;51307;52.162;7.560;2023-04-28T12:59:38;100483.91;;;14.38;61.05
64841;BME280;51307;52.162;7.560;2023-04-28T13:02:04;100482.44;;;14.35;61.81
64841;BME280;51307;52.162;7.560;2023-04-28T13:04:30;100478.72;;;14.36;62.05
64841;BME280;51307;52.162;7.560;2023-04-28T13:06:56;100483.25;;;14.36;62.12
64841;BME280;51307;52.162;7.560;2023-04-28T13:09:24;100484.97;;;14.22;62.73
64841;BME280;51307;52.162;7.560;2023-04-28T13:11:50;100481.41;;;14.36;62.01
64841;BME280;51307;52.162;7.560;2023-04-28T13:14:18;100482.69;;;14.40;62.23
64841;BME280;51307;52.162;7.560;2023-04-28T13:16:44;100479.53;;;14.37;62.07
64841;BME280;51307;52.162;7.560;2023-04-28T13:19:10;100476.91;;;14.43;62.08
64841;BME280;51307;52.162;7.560;2023-04-28T13:21:38;100475.91;;;14.44;61.90
64841;BME280;51307;52.162;7.560;2023-04-28T13:24:06;100471.03;;;14.33;62.51
64841;BME280;51307;52.162;7.560;2023-04-28T13:26:33;100470.00;;;14.34;62.67
64841;BME280;51307;52.162;7.560;2023-04-28T13:28:59;100477.91;;;14.21;63.75
64841;BME280;51307;52.162;7.560;2023-04-28T13:31:27;100471.72;;;14.20;63.99
64841;BME280;51307;52.162;7.560;2023-04-28T13:33:54;100470.88;;;14.20;64.20